Time;durP1;ratioP1;P1;durP2;ratioP2;P2;SDS_P1;SDS_P2;PMS_P1;PMS_P2;Temp;Humidity;BMP_temperature;BMP_pressure;BME280_temperature;BME280_humidity;BME280_pressure;Samples;Min_cycle;Max_cycle;Signal;HPM_P1;HPM_P2
2024/03/25 00:00:10;;;;;;;3.27;1.33;;;;;;;4.86;100.00;98982.44;5027167;28;20237;-78
2024/03/25 00:02:36;;;;;;;3.13;1.57;;;;;;;4.99;100.00;98973.53;5014743;28;20255;-78
2024/03/25 00:05:02;;;;;;;2.57;1.60;;;;;;;4.87;100.00;98969.47;5033597;28;20476;-78
2024/03/25 00:07:28;;;;;;;2.13;1.37;;;;;;;4.85;100.00;98970.38;5033875;28;20206;-78
2024/03/25 00:09:54;;;;;;;1.70;1.60;;;;;;;4.86;100.00;98978.13;5029919;28;20203;-76
2024/03/25 00:12:20;;;;;;;2.00;1.40;;;;;;;4.92;100.00;98975.41;5028532;28;20290;-78
2024/03/25 00:14:46;;;;;;;4.93;2.63;;;;;;;4.98;100.00;98975.28;5032739;28;20753;-79
2024/03/25 00:17:14;;;;;;;4.83;1.60;;;;;;;4.98;100.00;98974.44;5032575;28;20287;-80
2024/03/25 00:19:42;;;;;;;2.60;1.60;;;;;;;4.96;100.00;98956.38;5032923;28;20208;-80
2024/03/25 00:22:07;;;;;;;2.37;1.53;;;;;;;4.97;100.00;98940.00;5033010;28;20225;-79
2024/03/25 00:24:33;;;;;;;2.70;1.63;;;;;;;5.12;100.00;98938.81;5031565;28;20686;-78
2024/03/25 00:26:59;;;;;;;3.10;1.73;;;;;;;5.32;100.00;98947.88;5031911;28;20233;-79
2024/03/25 00:29:25;;;;;;;4.13;1.50;;;;;;;5.23;100.00;98948.91;5032468;28;20725;-77
2024/03/25 00:31:50;;;;;;;2.27;1.60;;;;;;;5.20;100.00;98953.31;5024332;28;20195;-78
2024/03/25 00:34:18;;;;;;;3.40;1.83;;;;;;;5.16;100.00;98962.88;5032279;28;20206;-79
2024/03/25 00:36:43;;;;;;;4.00;1.93;;;;;;;5.22;100.00;98969.66;5032197;28;20280;-79
2024/03/25 00:39:11;;;;;;;3.27;1.17;;;;;;;5.00;100.00;98982.19;5031646;28;20206;-79
2024/03/25 00:41:36;;;;;;;1.43;1.13;;;;;;;5.02;100.00;98999.34;5031639;28;20244;-78
2024/03/25 00:44:02;;;;;;;2.60;1.37;;;;;;;4.80;100.00;98978.25;5032114;28;20291;-78
2024/03/25 00:46:28;;;;;;;3.07;1.70;;;;;;;4.82;100.00;98957.53;5031602;28;20222;-77
2024/03/25 00:48:54;;;;;;;3.50;1.70;;;;;;;5.05;100.00;98949.31;5032499;28;20254;-78
2024/03/25 00:51:21;;;;;;;4.03;1.67;;;;;;;5.11;100.00;98951.75;5032569;28;20203;-79
2024/03/25 00:53:47;;;;;;;5.13;1.60;;;;;;;4.72;100.00;98931.00;5031937;28;20220;-77
2024/03/25 00:56:12;;;;;;;3.40;1.77;;;;;;;4.73;100.00;98902.53;5032402;28;20720;-80
2024/03/25 00:58:39;;;;;;;4.37;2.20;;;;;;;4.72;100.00;98887.06;5032171;28;20216;-80
2024/03/25 01:01:04;;;;;;;7.53;2.20;;;;;;;4.69;100.00;98884.53;5020071;28;20229;-80
2024/03/25 01:03:33;;;;;;;6.17;2.40;;;;;;;4.90;100.00;98883.25;5014511;28;20338;-77
2024/03/25 01:05:59;;;;;;;4.30;2.60;;;;;;;4.82;100.00;98874.81;5025778;28;20228;-78
2024/03/25 01:08:26;;;;;;;5.47;3.23;;;;;;;4.90;100.00;98876.34;5033740;28;20208;-77
2024/03/25 01:10:52;;;;;;;4.40;2.70;;;;;;;4.99;100.00;98885.63;5032969;28;20203;-79
2024/03/25 01:13:18;;;;;;;4.97;2.30;;;;;;;5.05;100.00;98907.91;5033385;28;20616;-79
2024/03/25 01:15:43;;;;;;;5.63;2.93;;;;;;;5.09;100.00;98915.56;5033348;28;20228;-76
2024/03/25 01:18:10;;;;;;;4.03;2.40;;;;;;;5.05;100.00;98941.53;5033844;28;20661;-79
2024/03/25 01:20:35;;;;;;;9.67;3.10;;;;;;;5.14;100.00;98954.28;5024728;28;20201;-78
2024/03/25 01:23:01;;;;;;;4.13;2.03;;;;;;;5.22;100.00;98973.09;5033934;28;20379;-78
2024/03/25 01:25:28;;;;;;;6.97;2.80;;;;;;;5.11;100.00;98991.44;5032489;28;20230;-78
2024/03/25 01:27:54;;;;;;;4.67;2.17;;;;;;;5.21;100.00;99001.56;5033152;28;20216;-80
2024/03/25 01:30:20;;;;;;;6.53;2.13;;;;;;;5.08;100.00;99026.84;5026952;28;20248;-78
2024/03/25 01:32:48;;;;;;;6.13;2.30;;;;;;;5.04;100.00;99030.38;5014006;28;20222;-77
2024/03/25 01:35:13;;;;;;;7.37;2.30;;;;;;;5.02;100.00;99021.78;5011108;28;20229;-78
2024/03/25 01:37:40;;;;;;;8.23;1.60;;;;;;;5.21;100.00;99028.28;5011830;28;20216;-78
2024/03/25 01:40:07;;;;;;;5.17;1.97;;;;;;;5.12;100.00;99036.25;5011689;28;20237;-77
2024/03/25 01:42:35;;;;;;;4.77;2.10;;;;;;;5.22;100.00;99048.09;5010685;28;20233;-78
2024/03/25 01:45:01;;;;;;;2.80;2.07;;;;;;;5.13;100.00;99053.44;5012194;28;20683;-78
2024/03/25 01:47:27;;;;;;;6.00;2.33;;;;;;;5.15;100.00;99056.84;5012458;28;20205;-78
2024/03/25 01:49:56;;;;;;;4.17;2.30;;;;;;;5.28;100.00;99063.50;5011043;28;20209;-79
2024/03/25 01:52:23;;;;;;;5.53;2.20;;;;;;;5.14;100.00;99089.63;5012131;28;20208;-77
2024/03/25 01:54:49;;;;;;;3.10;2.40;;;;;;;5.23;100.00;99088.59;5029247;28;20292;-78
2024/03/25 01:57:15;;;;;;;4.70;2.30;;;;;;;5.42;100.00;99108.97;5030607;28;20323;-78
2024/03/25 01:59:42;;;;;;;4.23;1.90;;;;;;;5.20;100.00;99126.63;5031073;28;20234;-78
2024/03/25 02:02:10;;;;;;;4.40;2.00;;;;;;;5.32;100.00;99140.19;5011123;28;20317;-77
2024/03/25 02:04:36;;;;;;;4.47;1.80;;;;;;;5.28;100.00;99153.22;5012168;28;20241;-79
2024/03/25 02:07:03;;;;;;;3.63;1.90;;;;;;;5.28;100.00;99160.97;5012861;28;20222;-78
2024/03/25 02:09:29;;;;;;;6.53;2.80;;;;;;;5.37;100.00;99186.66;5013656;28;20665;-79
2024/03/25 02:11:56;;;;;;;5.33;2.00;;;;;;;5.40;100.00;99184.03;5013433;28;20264;-79
2024/03/25 02:14:21;;;;;;;6.00;2.37;;;;;;;5.38;100.00;99180.63;5013361;28;20233;-78
2024/03/25 02:16:49;;;;;;;4.53;2.30;;;;;;;5.28;100.00;99172.16;5012190;28;20226;-78
2024/03/25 02:19:15;;;;;;;5.67;2.70;;;;;;;5.25;100.00;99173.94;5013453;28;20289;-76
2024/03/25 02:21:42;;;;;;;4.70;2.83;;;;;;;5.07;100.00;99181.13;5012251;28;20281;-78
2024/03/25 02:24:09;;;;;;;7.17;2.40;;;;;;;5.14;100.00;99177.56;5012016;28;20620;-78
2024/03/25 02:26:37;;;;;;;8.80;2.53;;;;;;;5.04;100.00;99164.84;5011743;28;20253;-78
2024/03/25 02:29:02;;;;;;;4.83;2.60;;;;;;;4.95;100.00;99143.41;5025517;28;20210;-77
2024/03/25 02:31:29;;;;;;;7.23;2.70;;;;;;;4.83;100.00;99133.28;5027541;28;20614;-77
2024/03/25 02:33:54;;;;;;;4.97;2.23;;;;;;;4.89;100.00;99135.75;5013740;28;20206;-78
2024/03/25 02:36:20;;;;;;;3.47;2.33;;;;;;;4.91;100.00;99151.25;5015434;28;20246;-78
2024/03/25 02:38:46;;;;;;;4.60;2.33;;;;;;;5.01;100.00;99157.97;5015572;28;20272;-78
2024/03/25 02:41:12;;;;;;;4.17;2.30;;;;;;;5.07;100.00;99157.84;5015960;28;20635;-79
2024/03/25 02:43:39;;;;;;;5.03;2.93;;;;;;;4.88;100.00;99179.75;5016549;28;20296;-79
2024/03/25 02:46:05;;;;;;;4.13;2.70;;;;;;;5.13;100.00;99190.53;5018734;28;20229;-77
2024/03/25 02:48:30;;;;;;;4.40;2.77;;;;;;;5.05;100.00;99182.91;5036262;28;20206;-77
2024/03/25 02:50:57;;;;;;;3.83;2.40;;;;;;;4.97;100.00;99180.47;5034794;28;20742;-77
2024/03/25 02:53:22;;;;;;;4.70;2.50;;;;;;;5.06;100.00;99183.78;5036993;28;20741;-78
2024/03/25 02:55:49;;;;;;;5.83;2.23;;;;;;;4.95;100.00;99182.19;5036062;28;20244;-77
2024/03/25 02:58:14;;;;;;;5.40;2.40;;;;;;;4.81;100.00;99185.91;5035845;28;20210;-79
2024/03/25 03:00:42;;;;;;;5.00;2.23;;;;;;;4.89;100.00;99191.78;5027168;28;20292;-76
2024/03/25 03:03:07;;;;;;;3.07;2.43;;;;;;;4.91;100.00;99216.72;5014142;28;20223;-77
2024/03/25 03:05:35;;;;;;;3.93;2.57;;;;;;;4.82;100.00;99223.81;5013298;28;20288;-78
2024/03/25 03:08:00;;;;;;;5.60;1.90;;;;;;;4.97;100.00;99228.72;5014495;28;20235;-77
2024/03/25 03:10:28;;;;;;;2.20;1.80;;;;;;;4.73;100.00;99235.97;5013127;28;20250;-76
2024/03/25 03:12:54;;;;;;;2.40;1.70;;;;;;;4.76;100.00;99223.00;5014183;28;20210;-77
2024/03/25 03:15:20;;;;;;;3.90;2.50;;;;;;;4.77;100.00;99227.28;5013932;28;20276;-77
2024/03/25 03:17:47;;;;;;;3.07;1.83;;;;;;;4.94;100.00;99221.03;5013629;28;20214;-77
2024/03/25 03:20:13;;;;;;;3.13;1.70;;;;;;;4.83;100.00;99228.94;5013490;28;20201;-78
2024/03/25 03:22:39;;;;;;;3.03;1.77;;;;;;;4.85;100.00;99228.91;5014664;28;20232;-78
2024/03/25 03:25:06;;;;;;;4.77;2.10;;;;;;;5.14;100.00;99234.47;5024859;28;20229;-77
2024/03/25 03:27:31;;;;;;;9.73;3.70;;;;;;;5.01;100.00;99242.47;5026104;28;20670;-78
2024/03/25 03:29:58;;;;;;;4.90;2.30;;;;;;;5.00;100.00;99259.72;5022339;28;20257;-77
2024/03/25 03:32:23;;;;;;;4.77;2.07;;;;;;;5.10;100.00;99243.19;5013282;28;20206;-77
2024/03/25 03:34:51;;;;;;;2.00;1.80;;;;;;;5.06;100.00;99261.34;5012775;28;20289;-77
2024/03/25 03:37:16;;;;;;;2.67;2.00;;;;;;;5.02;100.00;99270.88;5013458;28;20729;-77
2024/03/25 03:39:42;;;;;;;3.80;1.97;;;;;;;5.12;100.00;99261.25;5013541;28;20269;-77
2024/03/25 03:42:08;;;;;;;3.77;1.90;;;;;;;5.08;100.00;99270.78;5013095;28;20303;-76
2024/03/25 03:44:34;;;;;;;2.83;1.90;;;;;;;4.93;100.00;99256.34;5013741;28;20657;-78
2024/03/25 03:47:00;;;;;;;5.57;2.23;;;;;;;5.09;100.00;99253.53;5013267;28;20767;-77
2024/03/25 03:49:26;;;;;;;4.67;1.63;;;;;;;5.13;100.00;99261.25;5013609;28;20205;-78
2024/03/25 03:51:53;;;;;;;4.03;1.83;;;;;;;5.14;100.00;99275.03;5013674;28;20222;-78
2024/03/25 03:54:19;;;;;;;3.47;1.90;;;;;;;5.24;100.00;99267.97;5013985;28;20216;-77
2024/03/25 03:56:44;;;;;;;4.40;2.00;;;;;;;5.09;100.00;99277.66;5013469;28;20234;-78
2024/03/25 03:59:11;;;;;;;4.33;1.33;;;;;;;4.94;100.00;99270.16;5021921;28;20203;-78
2024/03/25 04:01:36;;;;;;;5.20;2.23;;;;;;;5.02;100.00;99257.13;5021047;28;20626;-78
2024/03/25 04:04:02;;;;;;;5.37;1.90;;;;;;;4.96;100.00;99265.81;5032580;28;20218;-79
2024/03/25 04:06:28;;;;;;;4.93;2.00;;;;;;;5.03;100.00;99267.41;5033725;28;20275;-77
2024/03/25 04:08:55;;;;;;;4.23;1.97;;;;;;;4.86;100.00;99282.34;5033105;28;20206;-79
2024/03/25 04:11:21;;;;;;;2.87;2.20;;;;;;;4.84;100.00;99279.78;5024436;28;20561;-78
2024/03/25 04:13:49;;;;;;;3.17;1.57;;;;;;;4.81;100.00;99272.06;5033401;28;20260;-77
2024/03/25 04:16:14;;;;;;;2.90;1.97;;;;;;;4.83;100.00;99256.53;5032816;28;20271;-77
2024/03/25 04:18:42;;;;;;;5.93;2.10;;;;;;;4.93;100.00;99258.09;5032718;28;20214;-78
2024/03/25 04:21:11;;;;;;;4.67;2.03;;;;;;;4.81;100.00;99243.63;5032647;28;20211;-78
2024/03/25 04:23:38;;;;;;;3.37;1.60;;;;;;;4.85;100.00;99240.09;5033067;28;20281;-77
2024/03/25 04:26:07;;;;;;;7.03;2.10;;;;;;;5.00;100.00;99244.19;5020069;28;20238;-77
2024/03/25 04:28:33;;;;;;;6.17;1.83;;;;;;;5.03;100.00;99246.72;5021309;28;20210;-78
2024/03/25 04:30:59;;;;;;;3.50;1.67;;;;;;;5.06;100.00;99245.84;5014852;28;20665;-76
2024/03/25 04:33:25;;;;;;;4.17;2.57;;;;;;;4.84;100.00;99243.59;5015295;28;20199;-78
2024/03/25 04:35:51;;;;;;;4.63;2.00;;;;;;;5.16;100.00;99239.63;5013623;28;20578;-78
